Time;durP1;ratioP1;P1;durP2;ratioP2;P2;SDS_P1;SDS_P2;PMS_P1;PMS_P2;Temp;Humidity;BMP_temperature;BMP_pressure;BME280_temperature;BME280_humidity;BME280_pressure;Samples;Min_cycle;Max_cycle;Signal;HPM_P1;HPM_P2
2024/04/01 00:01:38;;;;;;;71.53;10.75;;;15.40;99.90;;;;;;6308200;22;20057;-70
2024/04/01 00:04:04;;;;;;;74.55;11.02;;;15.40;99.90;;;;;;6307685;22;19995;-66
2024/04/01 00:06:30;;;;;;;70.70;10.45;;;15.40;99.90;;;;;;6307744;22;20026;-65
2024/04/01 00:08:55;;;;;;;68.63;9.57;;;15.40;99.90;;;;;;6308255;22;20007;-66
2024/04/01 00:11:22;;;;;;;75.30;11.95;;;15.40;99.90;;;;;;6308464;22;20011;-65
2024/04/01 00:13:48;;;;;;;69.30;12.43;;;15.40;99.90;;;;;;6280433;22;20020;-66
2024/04/01 00:16:14;;;;;;;72.28;11.48;;;15.40;99.90;;;;;;6307688;22;20003;-65
2024/04/01 00:18:40;;;;;;;68.57;11.02;;;15.40;99.90;;;;;;6307683;22;20010;-66
2024/04/01 00:21:06;;;;;;;77.90;10.43;;;15.40;99.90;;;;;;6307858;22;20329;-66
2024/04/01 00:23:33;;;;;;;79.03;11.82;;;15.40;99.90;;;;;;6308034;22;20003;-66
2024/04/01 00:25:59;;;;;;;69.10;11.65;;;15.40;99.90;;;;;;6308263;22;20003;-65
2024/04/01 00:28:24;;;;;;;69.93;10.93;;;15.50;99.90;;;;;;6308529;22;20011;-66
2024/04/01 00:30:52;;;;;;;78.63;10.57;;;15.40;99.90;;;;;;6308146;22;20022;-66
2024/04/01 00:33:18;;;;;;;77.05;11.90;;;15.40;99.90;;;;;;6308368;22;20337;-66
2024/04/01 00:40:07;;;;;;;;;;;;;;;;;;;;;
2024/04/01 00:43:35;;;;;;;84.00;12.05;;;15.40;99.90;;;;;;6109568;23;20097;-66
2024/04/01 00:46:51;;;;;;;73.18;11.43;;;15.40;99.90;;;;;;6171748;23;20129;-66
2024/04/01 00:56:17;;;;;;;65.53;10.00;;;15.40;99.90;;;;;;5925028;24;20028;-65
2024/04/01 01:02:07;;;;;;;76.68;10.38;;;15.40;99.90;;;;;;5921679;24;20077;-67
2024/04/01 01:04:36;;;;;;;65.97;10.68;;;15.40;99.90;;;;;;5948004;24;20009;-66
2024/04/01 01:07:03;;;;;;;69.35;9.85;;;15.30;99.90;;;;;;6037294;23;20359;-66
2024/04/01 01:09:29;;;;;;;67.38;11.00;;;15.30;99.90;;;;;;6296070;22;20102;-66
2024/04/01 01:11:56;;;;;;;62.00;10.63;;;15.30;99.90;;;;;;6307661;22;20368;-67
2024/04/01 01:14:22;;;;;;;76.50;11.27;;;15.30;99.90;;;;;;6307234;22;20337;-68
2024/04/01 01:16:48;;;;;;;76.68;12.85;;;15.30;99.90;;;;;;6307651;22;20002;-66
2024/04/01 01:19:15;;;;;;;75.15;10.68;;;15.30;99.90;;;;;;6280068;22;20425;-66
2024/04/01 01:21:42;;;;;;;77.68;12.38;;;15.30;99.90;;;;;;6307329;22;20011;-67
2024/04/01 01:24:08;;;;;;;70.43;10.07;;;15.30;99.90;;;;;;6307289;22;20007;-66
2024/04/01 01:26:35;;;;;;;67.05;10.38;;;15.30;99.90;;;;;;6307185;22;20087;-66
2024/04/01 01:29:00;;;;;;;62.40;9.65;;;15.30;99.90;;;;;;6307464;22;20366;-66
2024/04/01 01:31:26;;;;;;;68.40;12.15;;;15.30;99.90;;;;;;6307231;22;20006;-67
2024/04/01 01:33:53;;;;;;;45.78;7.93;;;15.30;99.90;;;;;;6307304;22;20479;-66
2024/04/01 01:36:19;;;;;;;49.15;7.93;;;15.20;99.90;;;;;;6307459;22;20325;-65
2024/04/01 01:38:45;;;;;;;56.10;10.85;;;15.20;99.90;;;;;;6307417;22;20033;-66
2024/04/01 01:41:11;;;;;;;66.50;11.65;;;15.20;99.90;;;;;;6307535;22;20007;-66
2024/04/01 01:43:36;;;;;;;71.97;10.02;;;15.20;99.90;;;;;;6307232;22;19999;-66
2024/04/01 01:46:02;;;;;;;60.33;9.35;;;15.20;99.90;;;;;;6307401;22;20053;-80
2024/04/01 01:48:28;;;;;;;62.45;9.95;;;15.20;99.90;;;;;;6307606;22;20075;-88
2024/04/01 01:50:54;;;;;;;57.38;9.80;;;15.20;99.90;;;;;;6308105;22;20003;-88
2024/04/01 01:53:20;;;;;;;64.25;10.15;;;15.20;99.90;;;;;;6307908;22;20013;-87
2024/04/01 01:55:45;;;;;;;72.10;11.02;;;15.10;99.90;;;;;;6308390;22;20004;-88
2024/04/01 01:58:11;;;;;;;73.63;10.27;;;15.20;99.90;;;;;;6307815;22;19996;-88
2024/04/01 02:00:37;;;;;;;70.68;11.93;;;15.10;99.90;;;;;;6307571;22;20003;-88
2024/04/01 02:03:06;;;;;;;65.75;12.00;;;15.10;99.90;;;;;;6307295;22;20026;-89
2024/04/01 02:05:32;;;;;;;74.32;9.75;;;15.10;99.90;;;;;;6307423;22;20444;-88
2024/04/01 02:07:58;;;;;;;66.40;9.73;;;15.20;99.90;;;;;;6308627;22;20015;-83
2024/04/01 02:10:25;;;;;;;69.97;10.85;;;15.20;99.90;;;;;;6311127;22;20020;-65
2024/04/01 02:12:51;;;;;;;75.07;10.65;;;15.20;99.90;;;;;;6309904;22;20004;-67
2024/04/01 02:15:22;;;;;;;65.90;10.30;;;15.20;99.90;;;;;;6310112;22;20384;-66
2024/04/01 02:17:48;;;;;;;54.63;9.27;;;15.20;99.90;;;;;;6310050;22;20037;-68
2024/04/01 02:20:17;;;;;;;54.92;9.20;;;15.10;99.90;;;;;;6309848;22;19995;-66
2024/04/01 02:22:49;;;;;;;66.60;10.40;;;15.10;99.90;;;;;;6309664;22;20064;-66
2024/04/01 02:50:08;;;;;;;57.80;10.98;;;15.10;99.90;;;;;;6105767;23;20043;-66
2024/04/01 02:52:34;;;;;;;64.57;10.48;;;15.00;99.90;;;;;;6196433;23;20012;-66
2024/04/01 02:55:00;;;;;;;67.28;11.13;;;15.00;99.90;;;;;;6214657;23;20071;-66
2024/04/01 02:57:25;;;;;;;70.80;11.43;;;15.00;99.90;;;;;;6293901;22;20486;-66
2024/04/01 02:59:51;;;;;;;62.88;10.63;;;15.00;99.90;;;;;;6308848;22;20027;-66
2024/04/01 03:02:17;;;;;;;67.32;10.57;;;15.00;99.90;;;;;;6308500;22;20003;-66
2024/04/01 03:04:43;;;;;;;59.83;9.30;;;15.00;99.90;;;;;;6308560;22;19995;-67
2024/04/01 03:07:09;;;;;;;52.42;10.32;;;15.10;99.90;;;;;;6308985;22;20003;-67
2024/04/01 03:09:35;;;;;;;60.42;9.65;;;15.00;99.90;;;;;;6308667;22;20479;-67
2024/04/01 03:12:01;;;;;;;64.43;11.77;;;15.00;99.90;;;;;;6308454;22;19999;-66
2024/04/01 03:14:27;;;;;;;68.28;11.07;;;15.00;99.90;;;;;;6308418;22;20019;-69
2024/04/01 03:16:53;;;;;;;53.95;11.00;;;15.00;99.90;;;;;;6308559;22;20440;-65
2024/04/01 03:19:18;;;;;;;53.90;9.50;;;15.00;99.90;;;;;;6308721;22;20015;-66
2024/04/01 03:21:44;;;;;;;68.35;9.95;;;15.00;99.90;;;;;;6308435;22;20025;-66
2024/04/01 03:24:10;;;;;;;69.03;10.50;;;15.00;99.90;;;;;;6308496;22;19999;-67
2024/04/01 03:26:36;;;;;;;69.32;10.48;;;15.00;99.90;;;;;;6308616;22;20003;-67
2024/04/01 03:29:01;;;;;;;69.00;11.23;;;15.00;99.90;;;;;;6308813;22;20014;-68
2024/04/01 03:31:27;;;;;;;72.45;9.70;;;15.00;99.90;;;;;;6308517;22;19996;-67
2024/04/01 03:33:53;;;;;;;69.20;11.27;;;15.00;99.90;;;;;;6308080;22;20018;-66
2024/04/01 03:36:19;;;;;;;66.85;10.32;;;15.00;99.90;;;;;;6280872;22;20088;-66
2024/04/01 03:38:45;;;;;;;70.13;10.23;;;15.00;99.90;;;;;;6308489;22;20031;-67
2024/04/01 03:41:10;;;;;;;71.43;11.27;;;15.00;99.90;;;;;;6306618;22;20003;-68
2024/04/01 03:43:36;;;;;;;67.82;9.93;;;15.00;99.90;;;;;;6308449;22;20004;-66
2024/04/01 03:46:02;;;;;;;70.05;11.48;;;15.00;99.90;;;;;;6308522;22;20014;-67
2024/04/01 03:48:29;;;;;;;74.90;11.25;;;15.00;99.90;;;;;;6308145;22;20011;-65
2024/04/01 03:50:55;;;;;;;66.50;10.48;;;15.00;99.90;;;;;;6308275;22;20030;-66
2024/04/01 03:53:21;;;;;;;67.63;10.30;;;15.00;99.90;;;;;;6308121;22;20011;-66
2024/04/01 03:55:47;;;;;;;69.28;11.50;;;15.00;99.90;;;;;;6308431;22;20070;-66
2024/04/01 03:58:16;;;;;;;67.28;10.60;;;15.00;99.90;;;;;;6308152;22;20437;-65
2024/04/01 04:00:42;;;;;;;76.65;12.75;;;15.00;99.90;;;;;;6308917;22;20327;-65
2024/04/01 04:03:08;;;;;;;74.78;11.63;;;15.00;99.90;;;;;;6309070;22;20033;-66
2024/04/01 04:05:36;;;;;;;70.55;10.38;;;15.00;99.90;;;;;;6308818;22;19999;-66
2024/04/01 04:08:02;;;;;;;81.15;11.45;;;15.00;99.90;;;;;;6308744;22;20002;-66
2024/04/01 04:10:29;;;;;;;59.00;11.02;;;15.10;99.90;;;;;;6308522;22;20007;-65
2024/04/01 04:20:31;;;;;;;80.32;12.50;;;15.00;99.90;;;;;;6081901;23;20053;-66
2024/04/01 04:31:12;;;;;;;79.20;11.80;;;15.00;99.90;;;;;;6065924;23;20438;-65
2024/04/01 04:33:38;;;;;;;71.28;11.63;;;15.00;99.90;;;;;;6065375;23;20115;-66
2024/04/01 04:36:10;;;;;;;69.13;11.73;;;15.00;99.90;;;;;;6065481;23;20019;-66
2024/04/01 04:39:00;;;;;;;;;;;;;;;;;;;;;
2024/04/01 04:41:29;;;;;;;76.00;11.77;;;15.00;99.90;;;;;;6066001;23;20089;-66
2024/04/01 04:43:58;;;;;;;83.60;12.05;;;15.00;99.90;;;;;;6220701;22;20082;-66
2024/04/01 04:46:24;;;;;;;71.15;9.88;;;15.00;99.90;;;;;;6307671;22;20026;-66
2024/04/01 04:48:49;;;;;;;66.35;10.60;;;15.00;99.90;;;;;;6307285;22;20044;-69
2024/04/01 04:51:15;;;;;;;69.78;10.93;;;15.00;99.90;;;;;;6306301;22;20078;-67
2024/04/01 04:53:41;;;;;;;76.95;12.00;;;15.00;99.90;;;;;;6307508;22;20007;-65
2024/04/01 04:56:07;;;;;;;85.40;12.02;;;15.00;99.90;;;;;;6307518;22;20400;-66
2024/04/01 04:58:33;;;;;;;63.83;10.98;;;15.00;99.90;;;;;;6307335;22;20011;-66
2024/04/01 05:01:05;;;;;;;71.57;12.30;;;15.00;99.90;;;;;;6307443;22;20356;-67
2024/04/01 05:03:32;;;;;;;87.45;11.85;;;15.00;99.90;;;;;;6308009;22;20333;-66
2024/04/01 05:05:59;;;;;;;76.38;12.57;;;15.00;99.90;;;;;;6307621;22;20003;-66
2024/04/01 05:08:25;;;;;;;73.07;10.70;;;15.00;99.90;;;;;;6307682;22;20030;-66
2024/04/01 05:10:51;;;;;;;83.05;12.57;;;15.00;99.90;;;;;;6307434;22;19999;-66
2024/04/01 05:13:16;;;;;;;90.88;12.95;;;15.00;99.90;;;;;;6307141;22;20011;-66
2024/04/01 05:15:42;;;;;;;73.88;13.18;;;15.00;99.90;;;;;;6307463;22;19995;-65
2024/04/01 05:18:08;;;;;;;76.57;13.18;;;15.00;99.90;;;;;;6307347;22;20018;-66
2024/04/01 05:20:34;;;;;;;80.07;12.77;;;15.00;99.90;;;;;;6307125;22;19999;-65
2024/04/01 05:23:00;;;;;;;68.45;12.82;;;15.10;99.90;;;;;;6306919;22;19999;-70
2024/04/01 05:25:25;;;;;;;75.43;13.27;;;15.00;99.90;;;;;;6307401;22;20010;-86
2024/04/01 05:27:51;;;;;;;80.85;11.30;;;15.00;99.90;;;;;;6307697;22;20011;-79
2024/04/01 05:30:20;;;;;;;87.28;13.77;;;15.00;99.90;;;;;;6307596;22;20025;-87
2024/04/01 05:32:46;;;;;;;87.70;13.30;;;15.00;99.90;;;;;;6307445;22;20325;-85
2024/04/01 05:35:16;;;;;;;99.28;12.63;;;15.00;99.90;;;;;;6307178;22;20074;-86
2024/04/01 05:37:45;;;;;;;87.82;12.50;;;15.00;99.90;;;;;;6280258;22;20086;-89
2024/04/01 05:40:14;;;;;;;82.63;13.20;;;15.00;99.90;;;;;;6307685;22;20507;-89
2024/04/01 05:42:40;;;;;;;79.93;13.23;;;15.00;99.90;;;;;;6280037;22;20444;-88
2024/04/01 05:45:06;;;;;;;83.22;12.55;;;15.00;99.90;;;;;;6307450;22;20003;-88
2024/04/01 05:47:32;;;;;;;91.53;13.27;;;15.00;99.90;;;;;;6281234;22;20392;-66
2024/04/01 05:49:58;;;;;;;95.35;12.95;;;15.00;99.90;;;;;;6307852;22;20049;-66
2024/04/01 05:52:24;;;;;;;96.43;14.23;;;15.10;99.90;;;;;;6308244;22;20007;-66
2024/04/01 05:54:50;;;;;;;92.18;13.25;;;15.00;99.90;;;;;;6307624;22;20026;-65
2024/04/01 05:57:16;;;;;;;81.68;11.88;;;15.00;99.90;;;;;;6307867;22;20011;-66
2024/04/01 05:59:44;;;;;;;111.28;14.27;;;15.10;99.90;;;;;;6307786;22;20003;-66
2024/04/01 06:16:52;;;;;;;99.13;15.15;;;15.10;99.90;;;;;;6152341;23;20024;-65
2024/04/01 06:22:34;;;;;;;88.63;13.95;;;15.20;99.90;;;;;;6093878;23;20021;-65
2024/04/01 06:25:52;;;;;;;94.28;14.77;;;15.10;99.90;;;;;;6140458;23;20029;-65
2024/04/01 06:28:19;;;;;;;103.18;15.20;;;15.20;99.90;;;;;;6152790;23;20037;-66
2024/04/01 06:30:45;;;;;;;94.47;13.40;;;15.20;99.90;;;;;;6153036;23;20329;-65
2024/04/01 06:33:11;;;;;;;106.40;15.25;;;15.10;99.90;;;;;;6187580;22;20018;-66
2024/04/01 06:35:36;;;;;;;89.22;11.98;;;15.20;99.90;;;;;;6306868;22;20004;-67
2024/04/01 06:38:02;;;;;;;108.72;15.43;;;15.20;99.90;;;;;;6307208;22;20000;-66
2024/04/01 06:40:28;;;;;;;93.38;13.05;;;15.20;99.90;;;;;;6307435;22;20006;-66
2024/04/01 06:42:54;;;;;;;103.32;13.80;;;15.20;99.90;;;;;;6307165;22;20094;-65
2024/04/01 06:45:20;;;;;;;108.97;17.13;;;15.20;99.90;;;;;;6306565;22;20007;-66
2024/04/01 06:47:46;;;;;;;88.82;13.68;;;15.20;99.90;;;;;;6306869;22;20023;-66
2024/04/01 06:50:12;;;;;;;94.30;13.82;;;15.20;99.90;;;;;;6306954;22;20380;-67
2024/04/01 06:52:37;;;;;;;89.35;14.75;;;15.20;99.90;;;;;;6307018;22;20002;-66
2024/04/01 06:55:04;;;;;;;101.60;15.93;;;15.20;99.90;;;;;;6307405;22;20010;-66
2024/04/01 06:57:30;;;;;;;98.70;15.80;;;15.20;99.90;;;;;;6281411;22;20129;-67
2024/04/01 06:59:55;;;;;;;107.55;15.15;;;15.20;99.90;;;;;;6308651;22;20007;-66
2024/04/01 07:02:22;;;;;;;98.30;16.67;;;15.20;99.90;;;;;;6308837;22;20030;-66
2024/04/01 07:04:48;;;;;;;97.78;15.52;;;15.20;99.90;;;;;;6308709;22;20042;-67
2024/04/01 07:07:14;;;;;;;92.28;15.48;;;15.20;99.90;;;;;;6308652;22;19999;-70
2024/04/01 07:09:40;;;;;;;108.60;14.80;;;15.30;99.90;;;;;;6308498;22;20003;-67
2024/04/01 07:12:06;;;;;;;105.15;16.05;;;15.30;99.90;;;;;;6308350;22;20019;-64
2024/04/01 07:14:32;;;;;;;101.78;15.10;;;15.30;99.90;;;;;;6308434;22;20035;-67
2024/04/01 07:16:57;;;;;;;98.13;16.48;;;15.30;99.90;;;;;;6308344;22;20011;-65
2024/04/01 07:19:23;;;;;;;99.38;14.20;;;15.30;99.90;;;;;;6308803;22;20006;-66
2024/04/01 07:21:49;;;;;;;93.60;15.68;;;15.40;99.90;;;;;;6308586;22;20070;-66
2024/04/01 07:24:15;;;;;;;86.53;15.85;;;15.40;99.90;;;;;;6308431;22;20078;-70
2024/04/01 07:26:40;;;;;;;94.18;15.02;;;15.40;99.90;;;;;;6308300;22;20049;-66
2024/04/01 07:29:06;;;;;;;78.38;13.43;;;15.40;99.90;;;;;;6308388;22;20074;-66
2024/04/01 07:31:32;;;;;;;78.60;14.07;;;15.40;99.90;;;;;;6307947;22;20002;-65
2024/04/01 07:33:58;;;;;;;87.18;15.18;;;15.40;99.90;;;;;;6280959;22;20011;-66
2024/04/01 07:36:24;;;;;;;88.30;13.20;;;15.40;99.90;;;;;;6308617;22;20005;-67
2024/04/01 07:38:50;;;;;;;76.93;13.65;;;15.40;99.90;;;;;;6308070;22;20003;-70
2024/04/01 07:41:15;;;;;;;91.57;15.75;;;15.40;99.90;;;;;;6308968;22;19999;-65
2024/04/01 07:43:41;;;;;;;75.18;14.02;;;15.40;99.90;;;;;;6309141;22;19999;-66
2024/04/01 07:46:07;;;;;;;74.72;13.27;;;15.40;99.90;;;;;;6308817;22;20306;-66
2024/04/01 07:48:34;;;;;;;67.63;14.40;;;15.40;99.90;;;;;;6308708;22;20014;-65
2024/04/01 07:51:53;;;;;;;69.65;13.10;;;15.40;99.90;;;;;;6308978;22;20000;-65
2024/04/01 07:57:41;;;;;;;68.75;12.48;;;15.40;99.90;;;;;;6124991;23;20017;-65
2024/04/01 08:00:54;;;;;;;99.20;14.80;;;15.40;99.90;;;;;;6124660;23;20010;-65
2024/04/01 08:03:55;;;;;;;81.03;13.95;;;15.40;99.90;;;;;;6065982;23;20416;-65
2024/04/01 08:06:44;;;;;;;59.35;14.07;;;15.40;99.90;;;;;;6018812;23;20014;-66
2024/04/01 08:12:23;;;;;;;65.70;14.03;;;15.40;99.90;;;;;;6066737;23;20504;-67
2024/04/01 08:15:26;;;;;;;74.00;12.90;;;15.40;99.90;;;;;;6066132;23;20023;-66
2024/04/01 08:17:52;;;;;;;83.05;13.50;;;15.40;99.90;;;;;;6033696;23;20019;-66
2024/04/01 08:20:18;;;;;;;74.03;13.13;;;15.40;99.90;;;;;;6220865;22;20328;-67
2024/04/01 08:22:44;;;;;;;70.38;12.35;;;15.50;99.90;;;;;;6307859;22;20078;-66
2024/04/01 08:25:10;;;;;;;75.38;14.43;;;15.50;99.90;;;;;;6307852;22;20006;-66
2024/04/01 08:27:36;;;;;;;71.72;12.93;;;15.50;99.90;;;;;;6307879;22;20046;-66
2024/04/01 08:30:02;;;;;;;69.28;11.68;;;15.50;99.90;;;;;;6308072;22;20333;-66
2024/04/01 08:32:28;;;;;;;78.18;13.25;;;15.50;99.90;;;;;;6307908;22;20007;-67
2024/04/01 08:34:54;;;;;;;85.03;15.40;;;15.50;99.90;;;;;;6307676;22;20014;-66
2024/04/01 08:37:20;;;;;;;76.15;13.45;;;15.60;99.90;;;;;;6307633;22;20053;-66
2024/04/01 08:39:45;;;;;;;77.45;14.38;;;15.50;99.90;;;;;;6307753;22;20060;-66
2024/04/01 08:42:15;;;;;;;93.43;16.05;;;15.60;99.90;;;;;;6307815;22;19995;-66
2024/04/01 08:44:46;;;;;;;77.25;12.48;;;15.60;99.90;;;;;;6307446;22;20003;-67
2024/04/01 08:47:13;;;;;;;87.50;17.17;;;15.60;99.90;;;;;;6307265;22;20000;-66
2024/04/01 08:49:57;;;;;;;86.00;15.82;;;15.60;99.90;;;;;;6307613;22;20140;-66
2024/04/01 08:52:30;;;;;;;98.53;17.27;;;15.60;99.90;;;;;;6307691;22;20425;-66
2024/04/01 08:54:56;;;;;;;93.53;16.65;;;15.70;99.90;;;;;;6307513;22;20039;-67
2024/04/01 08:57:21;;;;;;;92.95;15.13;;;15.60;99.90;;;;;;6307700;22;20483;-68
2024/04/01 08:59:49;;;;;;;87.32;16.42;;;15.60;99.90;;;;;;6307744;22;20078;-71
2024/04/01 09:02:14;;;;;;;80.65;15.68;;;15.70;99.90;;;;;;6307921;22;19999;-86
2024/04/01 09:04:40;;;;;;;82.05;17.38;;;15.70;99.90;;;;;;6307904;22;20074;-86
2024/04/01 09:07:12;;;;;;;74.20;15.98;;;15.70;99.90;;;;;;6308049;22;20023;-88
2024/04/01 09:09:39;;;;;;;81.65;16.00;;;15.70;99.90;;;;;;6307983;22;20318;-87
2024/04/01 09:12:06;;;;;;;86.97;17.20;;;15.70;99.90;;;;;;6307556;22;19999;-88
2024/04/01 09:14:32;;;;;;;82.95;16.25;;;15.70;99.90;;;;;;6307546;22;20003;-88
2024/04/01 09:17:00;;;;;;;107.40;18.05;;;15.70;99.90;;;;;;6307591;22;20022;-88
2024/04/01 09:19:26;;;;;;;79.85;17.30;;;15.70;99.90;;;;;;6307687;22;20440;-86
2024/04/01 09:21:52;;;;;;;71.28;15.77;;;15.70;99.90;;;;;;6307548;22;20002;-87
2024/04/01 09:24:18;;;;;;;82.72;17.02;;;15.70;99.90;;;;;;6308260;22;20003;-67
2024/04/01 09:26:44;;;;;;;75.00;15.90;;;15.70;99.90;;;;;;6308305;22;20129;-66
2024/04/01 09:29:10;;;;;;;92.00;16.52;;;15.80;99.90;;;;;;6308117;22;20445;-66
2024/04/01 09:31:36;;;;;;;84.15;18.35;;;15.80;99.90;;;;;;6308049;22;20005;-66
2024/04/01 09:34:02;;;;;;;91.43;16.42;;;15.80;99.90;;;;;;6307187;22;20045;-65
2024/04/01 09:36:28;;;;;;;103.63;17.17;;;15.80;99.90;;;;;;6307769;22;19999;-69
2024/04/01 09:39:25;;;;;;;90.22;15.73;;;15.80;99.90;;;;;;6308209;22;20006;-66
2024/04/01 09:48:57;;;;;;;79.10;14.35;;;15.90;99.90;;;;;;6008083;23;20095;-66
2024/04/01 09:56:08;;;;;;;101.78;15.45;;;15.90;99.90;;;;;;5980827;24;20027;-66
2024/04/01 10:02:31;;;;;;;95.40;15.48;;;15.90;99.90;;;;;;5994342;23;20014;-66
2024/04/01 10:05:34;;;;;;;92.75;17.52;;;15.90;99.90;;;;;;6094061;23;20014;-65
2024/04/01 10:08:20;;;;;;;82.00;18.83;;;15.80;99.90;;;;;;6093729;23;20003;-66
2024/04/01 10:11:13;;;;;;;92.70;17.25;;;15.80;99.90;;;;;;6093757;23;20417;-71
2024/04/01 10:14:10;;;;;;;81.28;16.27;;;15.80;99.90;;;;;;6250706;22;20341;-67
2024/04/01 10:16:41;;;;;;;98.20;18.60;;;15.80;99.90;;;;;;6276300;22;20000;-66
2024/04/01 10:19:41;;;;;;;102.93;19.93;;;15.80;99.90;;;;;;6276436;22;20011;-66
2024/04/01 10:22:33;;;;;;;99.57;16.70;;;15.80;99.90;;;;;;6275806;22;20639;-67
2024/04/01 10:25:32;;;;;;;104.18;17.90;;;15.80;99.90;;;;;;6213627;22;20112;-66
2024/04/01 10:28:10;;;;;;;117.13;18.52;;;15.80;99.90;;;;;;6275848;22;20314;-69
2024/04/01 10:31:21;;;;;;;113.65;19.45;;;15.80;99.90;;;;;;6278058;22;19999;-66
2024/04/01 10:34:04;;;;;;;122.82;19.58;;;15.80;99.90;;;;;;6246867;22;20023;-66
2024/04/01 10:37:07;;;;;;;115.50;19.23;;;15.70;99.90;;;;;;6277822;22;19996;-66
2024/04/01 10:40:09;;;;;;;132.07;19.35;;;15.70;99.90;;;;;;6278071;22;20418;-67
2024/04/01 10:42:57;;;;;;;118.38;20.80;;;15.70;99.90;;;;;;6278140;22;20014;-67
2024/04/01 10:45:55;;;;;;;131.20;22.45;;;15.60;99.90;;;;;;6278191;22;20414;-69
2024/04/01 10:48:27;;;;;;;122.53;21.20;;;15.70;99.90;;;;;;6278304;22;20011;-67
2024/04/01 10:51:01;;;;;;;119.72;19.60;;;15.60;99.90;;;;;;6300349;22;20471;-66
2024/04/01 10:53:30;;;;;;;178.68;45.92;;;15.60;99.90;;;;;;6306558;22;20011;-67
2024/04/01 10:56:20;;;;;;;116.75;22.23;;;15.60;99.90;;;;;;6306986;22;20406;-71
2024/04/01 10:59:16;;;;;;;122.00;21.02;;;15.60;99.90;;;;;;6307055;22;19996;-66
2024/04/01 11:02:09;;;;;;;117.22;20.10;;;15.60;99.90;;;;;;6279314;22;20086;-67
2024/04/01 11:05:07;;;;;;;134.98;22.67;;;15.60;99.90;;;;;;6306630;22;20003;-65
2024/04/01 11:07:34;;;;;;;113.57;19.80;;;15.60;99.90;;;;;;6306667;22;20062;-65
2024/04/01 11:10:08;;;;;;;111.45;21.70;;;15.60;99.90;;;;;;6306872;22;20082;-70
2024/04/01 11:12:57;;;;;;;123.20;19.98;;;15.70;99.90;;;;;;6306768;22;19995;-65
2024/04/01 11:15:25;;;;;;;142.40;24.35;;;15.70;99.90;;;;;;6306525;22;20501;-66
2024/04/01 11:17:58;;;;;;;123.53;22.27;;;15.60;99.90;;;;;;6307446;22;20003;-67
2024/04/01 11:20:30;;;;;;;111.88;19.75;;;15.60;99.90;;;;;;6307614;22;20009;-67
2024/04/01 11:23:20;;;;;;;110.28;20.70;;;15.70;99.90;;;;;;6307443;22;20003;-66
2024/04/01 11:26:31;;;;;;;114.63;20.15;;;15.70;99.90;;;;;;6305798;22;20054;-66
2024/04/01 11:39:52;;;;;;;111.82;21.60;;;15.60;99.90;;;;;;5979284;23;20020;-65
2024/04/01 11:49:50;;;;;;;114.95;17.38;;;15.60;99.90;;;;;;5090144;24;20994000;-66
2024/04/01 11:53:10;;;;;;;116.22;19.85;;;15.60;99.90;;;;;;5980831;24;20023;-65
2024/04/01 11:55:49;;;;;;;117.65;21.17;;;15.60;99.90;;;;;;5981123;24;20027;-66
2024/04/01 11:58:15;;;;;;;118.43;20.33;;;15.60;99.90;;;;;;6066559;23;20395;-66
2024/04/01 12:00:55;;;;;;;109.55;20.88;;;15.50;99.90;;;;;;6066897;23;20378;-66
2024/04/01 12:03:23;;;;;;;105.18;20.45;;;15.60;99.90;;;;;;6230845;22;20410;-66
2024/04/01 12:05:51;;;;;;;105.25;18.65;;;15.60;99.90;;;;;;6276248;22;19996;-66
2024/04/01 12:08:23;;;;;;;102.90;18.70;;;15.60;99.90;;;;;;6275437;22;20346;-65
2024/04/01 12:10:50;;;;;;;88.97;16.55;;;15.60;99.90;;;;;;6277183;22;20342;-65
2024/04/01 12:13:26;;;;;;;78.75;15.70;;;15.60;99.90;;;;;;6277131;22;20347;-69
2024/04/01 12:15:54;;;;;;;88.22;16.50;;;15.60;99.90;;;;;;6277032;22;19996;-66
2024/04/01 12:18:20;;;;;;;85.05;15.77;;;15.60;99.90;;;;;;6276923;22;20000;-66
2024/04/01 12:20:55;;;;;;;69.55;16.05;;;15.60;99.90;;;;;;6277209;22;20373;-66
2024/04/01 12:23:22;;;;;;;82.05;17.77;;;15.50;99.90;;;;;;6277214;22;20333;-66
2024/04/01 12:25:49;;;;;;;98.88;18.52;;;15.50;99.90;;;;;;6276857;22;20004;-65
2024/04/01 12:28:17;;;;;;;92.20;16.85;;;15.60;99.90;;;;;;6277023;22;20004;-67
2024/04/01 12:30:42;;;;;;;98.40;17.70;;;15.60;99.90;;;;;;6276761;22;20445;-67
2024/04/01 12:33:10;;;;;;;115.20;18.48;;;15.60;99.90;;;;;;6276979;22;20012;-69
2024/04/01 12:35:36;;;;;;;111.90;19.98;;;15.60;99.90;;;;;;6275654;22;20329;-66
2024/04/01 12:38:06;;;;;;;125.85;21.00;;;15.60;99.90;;;;;;6276905;22;20414;-68
2024/04/01 12:40:45;;;;;;;111.68;19.58;;;15.60;99.90;;;;;;6277623;22;20319;-88
2024/04/01 12:43:20;;;;;;;116.43;19.05;;;15.60;99.90;;;;;;6277184;22;20002;-89
2024/04/01 12:45:47;;;;;;;106.93;19.23;;;15.60;99.90;;;;;;6277356;22;20008;-82
2024/04/01 12:48:14;;;;;;;119.82;19.48;;;15.60;99.90;;;;;;6277185;22;20422;-88
2024/04/01 12:51:02;;;;;;;113.03;19.08;;;15.60;99.90;;;;;;6299180;22;20043;-87
2024/04/01 12:53:43;;;;;;;118.60;21.90;;;15.60;99.90;;;;;;6308256;22;20007;-88
2024/04/01 12:56:17;;;;;;;113.15;22.55;;;15.60;99.90;;;;;;6308302;22;20007;-84
2024/04/01 12:59:04;;;;;;;118.18;20.42;;;15.60;99.90;;;;;;6308294;22;20011;-89
2024/04/01 13:01:38;;;;;;;113.97;20.90;;;15.60;99.90;;;;;;6307933;22;20006;-88
2024/04/01 13:04:27;;;;;;;69.05;15.20;;;15.50;99.90;;;;;;6309206;22;20169;-65
2024/04/01 13:07:12;;;;;;;60.08;9.25;;;15.40;99.90;;;;;;6291654;22;20078;-66
2024/04/01 13:09:58;;;;;;;34.22;5.10;;;15.30;99.90;;;;;;6308389;22;20014;-65
2024/04/01 13:12:33;;;;;;;27.77;4.25;;;15.10;99.90;;;;;;6308086;22;20003;-66
2024/04/01 13:15:18;;;;;;;26.85;4.68;;;15.00;99.90;;;;;;6308017;22;20018;-65
2024/04/01 13:18:08;;;;;;;27.80;3.40;;;14.80;99.90;;;;;;6307924;22;20094;-66
2024/04/01 13:20:55;;;;;;;19.92;4.00;;;14.60;99.90;;;;;;6307873;22;20007;-66
2024/04/01 13:23:31;;;;;;;15.18;3.45;;;14.40;99.90;;;;;;6307676;22;19991;-65
2024/04/01 13:26:01;;;;;;;19.48;3.70;;;14.30;99.90;;;;;;6307833;22;20341;-66
2024/04/01 13:28:42;;;;;;;19.45;3.53;;;14.30;99.90;;;;;;6307592;22;20008;-65
2024/04/01 13:31:30;;;;;;;20.50;3.42;;;14.20;99.90;;;;;;6307782;22;20003;-66
2024/04/01 13:34:21;;;;;;;18.30;3.90;;;14.10;99.90;;;;;;6307525;22;20084;-66
2024/04/01 13:37:02;;;;;;;21.40;3.33;;;14.10;99.90;;;;;;6307667;22;19999;-66
2024/04/01 13:39:37;;;;;;;22.10;4.03;;;14.10;99.90;;;;;;6307072;22;20078;-66
2024/04/01 13:42:49;;;;;;;20.70;4.13;;;14.10;99.90;;;;;;6307415;22;20371;-67
2024/04/01 13:45:28;;;;;;;25.35;3.20;;;14.10;99.90;;;;;;6306546;22;20026;-65
2024/04/01 13:48:20;;;;;;;14.27;4.10;;;14.10;99.90;;;;;;6307437;22;20400;-66
2024/04/01 13:51:06;;;;;;;16.93;3.60;;;14.10;99.90;;;;;;6307410;22;20319;-66
2024/04/01 13:53:44;;;;;;;15.93;3.88;;;14.10;99.90;;;;;;6307369;22;20376;-69
2024/04/01 13:56:19;;;;;;;19.30;4.38;;;14.10;99.90;;;;;;6307203;22;20318;-67
2024/04/01 13:59:10;;;;;;;21.38;4.15;;;14.10;99.90;;;;;;6307480;22;20373;-67
2024/04/01 14:02:08;;;;;;;10.95;3.42;;;14.10;99.90;;;;;;6307225;22;20375;-66
2024/04/01 14:05:12;;;;;;;14.63;3.70;;;14.20;99.90;;;;;;6269228;22;20014;-66
2024/04/01 14:07:52;;;;;;;11.05;2.90;;;14.20;99.90;;;;;;6307643;22;20007;-66
2024/04/01 14:10:37;;;;;;;18.95;4.07;;;14.20;99.90;;;;;;6307295;22;20008;-67
2024/04/01 14:13:09;;;;;;;15.50;4.35;;;14.20;99.90;;;;;;6307008;22;20356;-66
2024/04/01 14:16:05;;;;;;;16.17;4.47;;;14.10;99.90;;;;;;6307528;22;20843;-66
2024/04/01 14:19:05;;;;;;;16.08;3.10;;;14.20;99.90;;;;;;6307126;22;20425;-69
2024/04/01 14:21:31;;;;;;;13.85;3.15;;;14.20;99.90;;;;;;6306863;22;20009;-67
2024/04/01 14:24:00;;;;;;;18.27;3.80;;;14.20;99.90;;;;;;6306838;22;20023;-66
2024/04/01 14:26:26;;;;;;;24.35;3.80;;;14.20;99.90;;;;;;6307165;22;20000;-66
2024/04/01 14:28:52;;;;;;;18.92;3.53;;;14.20;99.90;;;;;;6306835;22;20088;-67
2024/04/01 14:31:18;;;;;;;15.88;3.13;;;14.20;99.90;;;;;;6307064;22;20003;-70
2024/04/01 14:33:44;;;;;;;15.50;2.95;;;14.20;99.90;;;;;;6307074;22;20022;-66
2024/04/01 14:36:10;;;;;;;18.52;3.13;;;14.30;99.90;;;;;;6306857;22;19999;-65
2024/04/01 14:38:37;;;;;;;13.25;3.50;;;14.30;99.90;;;;;;6306683;22;20074;-65
2024/04/01 14:41:03;;;;;;;19.95;4.93;;;14.30;99.90;;;;;;6306940;22;20768;-65
2024/04/01 14:43:30;;;;;;;12.77;3.47;;;14.20;99.90;;;;;;6307233;22;20437;-65
2024/04/01 14:45:58;;;;;;;12.85;3.42;;;14.30;99.90;;;;;;6307223;22;20002;-65
2024/04/01 14:48:24;;;;;;;17.73;3.15;;;14.30;99.90;;;;;;6307330;22;20086;-66